Terminal Aerodrome Forecast
Issued by NWS Binghamton, NY

Home | Current Version | Previous Version | Text Only | Print | Product List | Glossary On
Versions: 1 2 3 4 5 6 7 8 9 10 11 12 13 14 15 16
000
FTUS41 KBGM 230900 AAA
TAFAVP
TAF AMD
KAVP 230914Z 2309/2406 30012G16KT P6SM OVC025
      TEMPO 2310/2314 P6SM -SHRA OVC025
     FM231400 32018G25KT P6SM BKN025
     FM231800 32018G28KT P6SM BKN035
     FM240000 32012G20KT P6SM SCT040=

USA.gov is the U.S. government's official web portal to all federal, state and local government web resources and services.